sensor_id;sensor_type;location;lat;lon;timestamp;pressure;altitude;pressure_sealevel;temperature;humidity
4858;BME280;58975;51.978;8.472;2023-02-04T00:04:55;101601.44;;;5.03;100.00
4858;BME280;58975;51.978;8.472;2023-02-04T00:09:52;101607.75;;;4.99;100.00
4858;BME280;58975;51.978;8.472;2023-02-04T00:14:48;101599.16;;;4.94;100.00
4858;BME280;58975;51.978;8.472;2023-02-04T00:19:45;101612.25;;;4.97;100.00
4858;BME280;58975;51.978;8.472;2023-02-04T00:24:41;101613.94;;;4.98;100.00
4858;BME280;58975;51.978;8.472;2023-02-04T00:29:43;101626.25;;;4.99;100.00
4858;BME280;58975;51.978;8.472;2023-02-04T00:34:39;101632.22;;;5.04;100.00
4858;BME280;58975;51.978;8.472;2023-02-04T00:39:36;101640.13;;;5.04;100.00
4858;BME280;58975;51.978;8.472;2023-02-04T00:44:32;101652.22;;;5.10;100.00
4858;BME280;58975;51.978;8.472;2023-02-04T00:49:29;101644.44;;;5.07;100.00
4858;BME280;58975;51.978;8.472;2023-02-04T00:54:25;101663.81;;;5.06;100.00
4858;BME280;58975;51.978;8.472;2023-02-04T00:59:22;101677.22;;;5.01;100.00
4858;BME280;58975;51.978;8.472;2023-02-04T01:04:19;101690.50;;;4.98;100.00
4858;BME280;58975;51.978;8.472;2023-02-04T01:09:16;101692.38;;;4.96;100.00
4858;BME280;58975;51.978;8.472;2023-02-04T01:14:12;101709.22;;;4.92;100.00
4858;BME280;58975;51.978;8.472;2023-02-04T01:19:09;101710.13;;;4.91;100.00
4858;BME280;58975;51.978;8.472;2023-02-04T01:24:06;101709.38;;;4.88;100.00
4858;BME280;58975;51.978;8.472;2023-02-04T01:29:03;101728.03;;;4.83;100.00
4858;BME280;58975;51.978;8.472;2023-02-04T01:33:59;101734.31;;;4.79;100.00
4858;BME280;58975;51.978;8.472;2023-02-04T01:38:56;101723.88;;;4.76;100.00
4858;BME280;58975;51.978;8.472;2023-02-04T01:43:53;101737.31;;;4.70;100.00
4858;BME280;58975;51.978;8.472;2023-02-04T01:48:50;101730.34;;;4.67;100.00
4858;BME280;58975;51.978;8.472;2023-02-04T01:53:46;101740.97;;;4.66;100.00
4858;BME280;58975;51.978;8.472;2023-02-04T01:58:43;101742.00;;;4.62;100.00
4858;BME280;58975;51.978;8.472;2023-02-04T02:03:40;101753.44;;;4.61;100.00
4858;BME280;58975;51.978;8.472;2023-02-04T02:08:37;101748.19;;;4.61;100.00
4858;BME280;58975;51.978;8.472;2023-02-04T02:13:33;101757.00;;;4.60;100.00
4858;BME280;58975;51.978;8.472;2023-02-04T02:18:30;101772.97;;;4.55;100.00
4858;BME280;58975;51.978;8.472;2023-02-04T02:23:46;101781.84;;;4.54;100.00
4858;BME280;58975;51.978;8.472;2023-02-04T02:28:43;101787.09;;;4.54;100.00
4858;BME280;58975;51.978;8.472;2023-02-04T02:33:39;101789.78;;;4.53;100.00
4858;BME280;58975;51.978;8.472;2023-02-04T02:38:36;101812.72;;;4.51;100.00
4858;BME280;58975;51.978;8.472;2023-02-04T02:43:34;101814.53;;;4.49;100.00
4858;BME280;58975;51.978;8.472;2023-02-04T02:48:30;101819.94;;;4.46;100.00
4858;BME280;58975;51.978;8.472;2023-02-04T02:53:27;101816.66;;;4.38;100.00
4858;BME280;58975;51.978;8.472;2023-02-04T02:58:27;101820.44;;;4.31;100.00
4858;BME280;58975;51.978;8.472;2023-02-04T03:03:27;101812.75;;;4.23;100.00
4858;BME280;58975;51.978;8.472;2023-02-04T03:08:25;101823.31;;;4.23;100.00
4858;BME280;58975;51.978;8.472;2023-02-04T03:13:22;101819.69;;;4.25;100.00
4858;BME280;58975;51.978;8.472;2023-02-04T03:18:19;101816.03;;;4.31;100.00
4858;BME280;58975;51.978;8.472;2023-02-04T03:23:17;101829.25;;;4.29;100.00
4858;BME280;58975;51.978;8.472;2023-02-04T03:28:13;101839.78;;;4.29;100.00
4858;BME280;58975;51.978;8.472;2023-02-04T03:33:10;101856.41;;;4.32;100.00
4858;BME280;58975;51.978;8.472;2023-02-04T03:38:06;101864.31;;;4.32;100.00
4858;BME280;58975;51.978;8.472;2023-02-04T03:43:04;101878.47;;;4.29;100.00
4858;BME280;58975;51.978;8.472;2023-02-04T03:48:01;101875.88;;;4.27;100.00
4858;BME280;58975;51.978;8.472;2023-02-04T03:52:57;101879.44;;;4.26;100.00
4858;BME280;58975;51.978;8.472;2023-02-04T03:57:54;101890.03;;;4.25;100.00
4858;BME280;58975;51.978;8.472;2023-02-04T04:02:51;101899.81;;;4.21;100.00
4858;BME280;58975;51.978;8.472;2023-02-04T04:07:47;101913.03;;;4.20;100.00
4858;BME280;58975;51.978;8.472;2023-02-04T04:12:43;101920.09;;;4.19;100.00
4858;BME280;58975;51.978;8.472;2023-02-04T04:17:40;101918.38;;;4.18;100.00
4858;BME280;58975;51.978;8.472;2023-02-04T04:22:37;101941.97;;;4.23;100.00
4858;BME280;58975;51.978;8.472;2023-02-04T04:27:33;101941.59;;;4.06;100.00
4858;BME280;58975;51.978;8.472;2023-02-04T04:32:30;101947.06;;;4.00;100.00
4858;BME280;58975;51.978;8.472;2023-02-04T04:37:26;101944.47;;;3.97;100.00
4858;BME280;58975;51.978;8.472;2023-02-04T04:42:22;101937.50;;;3.96;100.00
4858;BME280;58975;51.978;8.472;2023-02-04T04:47:19;101948.31;;;3.87;100.00
4858;BME280;58975;51.978;8.472;2023-02-04T04:52:15;101956.25;;;3.85;100.00
4858;BME280;58975;51.978;8.472;2023-02-04T04:57:11;101958.63;;;3.94;100.00
4858;BME280;58975;51.978;8.472;2023-02-04T05:02:08;101962.25;;;3.90;100.00
4858;BME280;58975;51.978;8.472;2023-02-04T05:07:04;101968.63;;;3.81;100.00
4858;BME280;58975;51.978;8.472;2023-02-04T05:12:01;101972.56;;;3.67;100.00
4858;BME280;58975;51.978;8.472;2023-02-04T05:16:57;101981.56;;;3.58;100.00
4858;BME280;58975;51.978;8.472;2023-02-04T05:21:54;101996.03;;;3.42;100.00
4858;BME280;58975;51.978;8.472;2023-02-04T05:26:50;102005.00;;;3.35;100.00
4858;BME280;58975;51.978;8.472;2023-02-04T05:31:46;102005.22;;;3.27;100.00
4858;BME280;58975;51.978;8.472;2023-02-04T05:36:43;102014.16;;;3.20;100.00
4858;BME280;58975;51.978;8.472;2023-02-04T05:41:39;102028.41;;;3.12;100.00
4858;BME280;58975;51.978;8.472;2023-02-04T05:46:35;102036.50;;;3.04;100.00
4858;BME280;58975;51.978;8.472;2023-02-04T05:51:33;102049.72;;;3.01;100.00
4858;BME280;58975;51.978;8.472;2023-02-04T05:56:29;102045.56;;;2.91;100.00
4858;BME280;58975;51.978;8.472;2023-02-04T06:01:25;102058.03;;;2.83;100.00
4858;BME280;58975;51.978;8.472;2023-02-04T06:06:22;102060.81;;;2.75;100.00
4858;BME280;58975;51.978;8.472;2023-02-04T06:11:18;102078.59;;;2.66;100.00
4858;BME280;58975;51.978;8.472;2023-02-04T06:16:14;102076.22;;;2.54;100.00
4858;BME280;58975;51.978;8.472;2023-02-04T06:21:11;102079.19;;;2.37;100.00
4858;BME280;58975;51.978;8.472;2023-02-04T06:26:07;102078.22;;;2.41;100.00
4858;BME280;58975;51.978;8.472;2023-02-04T06:31:04;102092.97;;;2.48;100.00
4858;BME280;58975;51.978;8.472;2023-02-04T06:36:02;102105.75;;;2.23;100.00
4858;BME280;58975;51.978;8.472;2023-02-04T06:40:58;102100.75;;;2.10;100.00
4858;BME280;58975;51.978;8.472;2023-02-04T06:45:55;102106.00;;;2.08;100.00
4858;BME280;58975;51.978;8.472;2023-02-04T06:50:51;102113.81;;;2.13;100.00
4858;BME280;58975;51.978;8.472;2023-02-04T06:55:48;102129.66;;;2.08;100.00
4858;BME280;58975;51.978;8.472;2023-02-04T07:00:44;102134.75;;;2.19;100.00
4858;BME280;58975;51.978;8.472;2023-02-04T07:05:41;102141.84;;;2.12;100.00
4858;BME280;58975;51.978;8.472;2023-02-04T07:10:37;102152.38;;;2.12;100.00
4858;BME280;58975;51.978;8.472;2023-02-04T07:15:33;102140.28;;;2.02;100.00
4858;BME280;58975;51.978;8.472;2023-02-04T07:20:30;102144.69;;;2.00;100.00
4858;BME280;58975;51.978;8.472;2023-02-04T07:25:27;102153.66;;;1.90;100.00
4858;BME280;58975;51.978;8.472;2023-02-04T07:30:23;102166.53;;;1.50;100.00
4858;BME280;58975;51.978;8.472;2023-02-04T07:35:20;102167.53;;;1.45;100.00
4858;BME280;58975;51.978;8.472;2023-02-04T07:40:16;102167.97;;;1.71;100.00
4858;BME280;58975;51.978;8.472;2023-02-04T07:45:13;102181.00;;;1.77;100.00
4858;BME280;58975;51.978;8.472;2023-02-04T07:50:09;102186.59;;;1.56;100.00
4858;BME280;58975;51.978;8.472;2023-02-04T07:55:06;102196.81;;;1.74;100.00
4858;BME280;58975;51.978;8.472;2023-02-04T08:00:03;102194.63;;;2.00;100.00
4858;BME280;58975;51.978;8.472;2023-02-04T08:05:00;102185.50;;;2.22;100.00
4858;BME280;58975;51.978;8.472;2023-02-04T08:09:56;102190.81;;;2.18;100.00
4858;BME280;58975;51.978;8.472;2023-02-04T08:14:53;102200.47;;;2.17;100.00
4858;BME280;58975;51.978;8.472;2023-02-04T08:19:49;102203.47;;;2.47;100.00
4858;BME280;58975;51.978;8.472;2023-02-04T08:24:45;102214.22;;;2.79;100.00
4858;BME280;58975;51.978;8.472;2023-02-04T08:29:42;102213.06;;;2.92;100.00
4858;BME280;58975;51.978;8.472;2023-02-04T08:34:38;102234.44;;;3.20;100.00
4858;BME280;58975;51.978;8.472;2023-02-04T08:39:35;102238.22;;;3.48;100.00
4858;BME280;58975;51.978;8.472;2023-02-04T08:44:31;102242.88;;;3.74;100.00
4858;BME280;58975;51.978;8.472;2023-02-04T08:49:28;102252.31;;;3.84;100.00
4858;BME280;58975;51.978;8.472;2023-02-04T08:54:24;102252.59;;;4.09;100.00
4858;BME280;58975;51.978;8.472;2023-02-04T08:59:21;102267.09;;;4.26;100.00
4858;BME280;58975;51.978;8.472;2023-02-04T09:04:20;102262.38;;;4.39;100.00
4858;BME280;58975;51.978;8.472;2023-02-04T09:09:17;102259.56;;;4.47;100.00
4858;BME280;58975;51.978;8.472;2023-02-04T09:14:16;102261.00;;;4.58;100.00
4858;BME280;58975;51.978;8.472;2023-02-04T09:19:13;102264.13;;;4.74;100.00
4858;BME280;58975;51.978;8.472;2023-02-04T09:24:11;102276.13;;;4.84;100.00
4858;BME280;58975;51.978;8.472;2023-02-04T09:29:07;102281.34;;;4.87;100.00
4858;BME280;58975;51.978;8.472;2023-02-04T09:34:04;102287.84;;;5.06;100.00
4858;BME280;58975;51.978;8.472;2023-02-04T09:39:00;102293.34;;;5.30;100.00
4858;BME280;58975;51.978;8.472;2023-02-04T09:43:57;102288.88;;;5.61;100.00
4858;BME280;58975;51.978;8.472;2023-02-04T09:48:54;102298.78;;;5.84;100.00
4858;BME280;58975;51.978;8.472;2023-02-04T09:53:53;102308.03;;;5.98;100.00
4858;BME280;58975;51.978;8.472;2023-02-04T09:58:50;102308.41;;;5.86;100.00
4858;BME280;58975;51.978;8.472;2023-02-04T10:03:48;102304.47;;;5.70;100.00
4858;BME280;58975;51.978;8.472;2023-02-04T10:08:48;102307.56;;;5.84;100.00
4858;BME280;58975;51.978;8.472;2023-02-04T10:13:49;102320.88;;;6.10;100.00
4858;BME280;58975;51.978;8.472;2023-02-04T10:18:46;102325.00;;;6.47;100.00
4858;BME280;58975;51.978;8.472;2023-02-04T10:23:47;102331.50;;;6.89;100.00
4858;BME280;58975;51.978;8.472;2023-02-04T10:28:44;102326.44;;;7.06;100.00
4858;BME280;58975;51.978;8.472;2023-02-04T10:33:41;102341.22;;;6.89;100.00
4858;BME280;58975;51.978;8.472;2023-02-04T10:38:37;102340.41;;;6.60;100.00
4858;BME280;58975;51.978;8.472;2023-02-04T10:43:34;102339.69;;;6.82;100.00
4858;BME280;58975;51.978;8.472;2023-02-04T10:48:39;102340.84;;;7.24;100.00
4858;BME280;58975;51.978;8.472;2023-02-04T10:53:36;102338.34;;;7.44;100.00
4858;BME280;58975;51.978;8.472;2023-02-04T10:58:51;102337.31;;;7.24;100.00
4858;BME280;58975;51.978;8.472;2023-02-04T11:03:47;102345.13;;;7.28;100.00
4858;BME280;58975;51.978;8.472;2023-02-04T11:08:47;102342.56;;;6.49;100.00
4858;BME280;58975;51.978;8.472;2023-02-04T11:18:49;102337.31;;;6.74;100.00
4858;BME280;58975;51.978;8.472;2023-02-04T11:23:46;102342.09;;;6.63;100.00
4858;BME280;58975;51.978;8.472;2023-02-04T11:33:48;102348.88;;;6.17;100.00
4858;BME280;58975;51.978;8.472;2023-02-04T11:38:47;102342.47;;;6.51;100.00
4858;BME280;58975;51.978;8.472;2023-02-04T11:43:44;102349.72;;;6.72;100.00
4858;BME280;58975;51.978;8.472;2023-02-04T11:48:40;102361.34;;;6.42;100.00
4858;BME280;58975;51.978;8.472;2023-02-04T11:53:37;102356.41;;;6.57;100.00
4858;BME280;58975;51.978;8.472;2023-02-04T11:58:37;102353.47;;;6.91;100.00
4858;BME280;58975;51.978;8.472;2023-02-04T12:03:45;102355.94;;;6.45;100.00
4858;BME280;58975;51.978;8.472;2023-02-04T12:08:41;102358.28;;;5.98;100.00
4858;BME280;58975;51.978;8.472;2023-02-04T12:13:47;102362.03;;;5.91;100.00
4858;BME280;58975;51.978;8.472;2023-02-04T12:18:44;102350.41;;;5.97;100.00
4858;BME280;58975;51.978;8.472;2023-02-04T12:23:41;102356.63;;;5.96;100.00
4858;BME280;58975;51.978;8.472;2023-02-04T12:28:37;102362.09;;;6.17;100.00
4858;BME280;58975;51.978;8.472;2023-02-04T12:33:34;102359.56;;;6.69;100.00
4858;BME280;58975;51.978;8.472;2023-02-04T12:38:30;102375.59;;;6.64;100.00
4858;BME280;58975;51.978;8.472;2023-02-04T12:43:26;102369.56;;;6.59;100.00
4858;BME280;58975;51.978;8.472;2023-02-04T12:48:23;102383.25;;;6.45;100.00
4858;BME280;58975;51.978;8.472;2023-02-04T12:53:21;102378.81;;;5.90;100.00
4858;BME280;58975;51.978;8.472;2023-02-04T12:58:17;102376.47;;;6.09;100.00
4858;BME280;58975;51.978;8.472;2023-02-04T13:03:14;102377.06;;;5.89;100.00
4858;BME280;58975;51.978;8.472;2023-02-04T13:08:10;102364.44;;;5.99;100.00
4858;BME280;58975;51.978;8.472;2023-02-04T13:13:06;102364.31;;;6.03;100.00
4858;BME280;58975;51.978;8.472;2023-02-04T13:18:03;102370.50;;;6.02;100.00
4858;BME280;58975;51.978;8.472;2023-02-04T13:22:59;102365.00;;;6.64;100.00
4858;BME280;58975;51.978;8.472;2023-02-04T13:27:56;102362.75;;;7.04;100.00
4858;BME280;58975;51.978;8.472;2023-02-04T13:32:52;102362.63;;;7.07;100.00
4858;BME280;58975;51.978;8.472;2023-02-04T13:37:48;102371.56;;;6.79;100.00
4858;BME280;58975;51.978;8.472;2023-02-04T13:42:45;102370.44;;;6.59;100.00
4858;BME280;58975;51.978;8.472;2023-02-04T13:47:41;102380.75;;;6.41;100.00
4858;BME280;58975;51.978;8.472;2023-02-04T13:52:38;102376.44;;;6.10;100.00
4858;BME280;58975;51.978;8.472;2023-02-04T13:57:34;102377.13;;;6.15;100.00
4858;BME280;58975;51.978;8.472;2023-02-04T14:02:32;102383.41;;;6.13;100.00
4858;BME280;58975;51.978;8.472;2023-02-04T14:07:29;102383.16;;;6.21;100.00
4858;BME280;58975;51.978;8.472;2023-02-04T14:12:25;102388.78;;;6.10;100.00
4858;BME280;58975;51.978;8.472;2023-02-04T14:17:22;102379.34;;;6.01;100.00
4858;BME280;58975;51.978;8.472;2023-02-04T14:22:18;102377.13;;;6.15;100.00
4858;BME280;58975;51.978;8.472;2023-02-04T14:27:15;102378.94;;;6.15;100.00
4858;BME280;58975;51.978;8.472;2023-02-04T14:32:11;102376.53;;;6.07;100.00
4858;BME280;58975;51.978;8.472;2023-02-04T14:37:07;102385.38;;;6.06;100.00
4858;BME280;58975;51.978;8.472;2023-02-04T14:42:04;102387.13;;;6.07;100.00
4858;BME280;58975;51.978;8.472;2023-02-04T14:47:00;102380.03;;;6.08;100.00
4858;BME280;58975;51.978;8.472;2023-02-04T14:51:57;102373.44;;;5.93;100.00
4858;BME280;58975;51.978;8.472;2023-02-04T14:56:53;102371.53;;;5.67;100.00
4858;BME280;58975;51.978;8.472;2023-02-04T15:01:50;102380.59;;;5.59;100.00
4858;BME280;58975;51.978;8.472;2023-02-04T15:06:46;102383.56;;;5.47;100.00
4858;BME280;58975;51.978;8.472;2023-02-04T15:11:42;102378.38;;;5.44;100.00
4858;BME280;58975;51.978;8.472;2023-02-04T15:16:39;102391.88;;;5.33;100.00
4858;BME280;58975;51.978;8.472;2023-02-04T15:21:37;102385.13;;;5.21;100.00
4858;BME280;58975;51.978;8.472;2023-02-04T15:26:33;102401.25;;;5.12;100.00
4858;BME280;58975;51.978;8.472;2023-02-04T15:31:30;102399.81;;;4.99;100.00
4858;BME280;58975;51.978;8.472;2023-02-04T15:36:27;102396.56;;;4.90;100.00
4858;BME280;58975;51.978;8.472;2023-02-04T15:41:23;102395.22;;;4.73;100.00
4858;BME280;58975;51.978;8.472;2023-02-04T15:46:20;102387.50;;;4.64;100.00
4858;BME280;58975;51.978;8.472;2023-02-04T15:51:16;102391.38;;;4.50;100.00
4858;BME280;58975;51.978;8.472;2023-02-04T15:56:12;102402.22;;;4.38;100.00
4858;BME280;58975;51.978;8.472;2023-02-04T16:01:09;102400.41;;;4.40;100.00
4858;BME280;58975;51.978;8.472;2023-02-04T16:06:05;102404.72;;;4.44;100.00
4858;BME280;58975;51.978;8.472;2023-02-04T16:11:02;102410.16;;;4.36;100.00
4858;BME280;58975;51.978;8.472;2023-02-04T16:16:01;102419.16;;;4.27;100.00
4858;BME280;58975;51.978;8.472;2023-02-04T16:20:57;102415.84;;;4.19;100.00
4858;BME280;58975;51.978;8.472;2023-02-04T16:25:54;102409.97;;;4.05;100.00
4858;BME280;58975;51.978;8.472;2023-02-04T16:30:50;102421.19;;;3.75;100.00
4858;BME280;58975;51.978;8.472;2023-02-04T16:36:00;102410.81;;;3.66;100.00
4858;BME280;58975;51.978;8.472;2023-02-04T16:40:57;102410.38;;;3.44;100.00
4858;BME280;58975;51.978;8.472;2023-02-04T16:45:54;102412.22;;;3.41;100.00
4858;BME280;58975;51.978;8.472;2023-02-04T16:50:50;102411.25;;;3.45;100.00
4858;BME280;58975;51.978;8.472;2023-02-04T16:55:48;102416.56;;;3.42;100.00
4858;BME280;58975;51.978;8.472;2023-02-04T17:00:44;102430.72;;;3.36;100.00
4858;BME280;58975;51.978;8.472;2023-02-04T17:05:41;102442.28;;;3.29;100.00
4858;BME280;58975;51.978;8.472;2023-02-04T17:10:37;102444.91;;;3.27;100.00
4858;BME280;58975;51.978;8.472;2023-02-04T17:15:52;102449.31;;;3.27;100.00
4858;BME280;58975;51.978;8.472;2023-02-04T17:20:56;102448.28;;;3.37;100.00
4858;BME280;58975;51.978;8.472;2023-02-04T17:25:53;102449.03;;;3.42;100.00
4858;BME280;58975;51.978;8.472;2023-02-04T17:30:50;102439.50;;;3.35;100.00
4858;BME280;58975;51.978;8.472;2023-02-04T17:35:46;102453.97;;;3.11;100.00
4858;BME280;58975;51.978;8.472;2023-02-04T17:40:43;102455.13;;;2.97;100.00
4858;BME280;58975;51.978;8.472;2023-02-04T17:45:39;102457.00;;;2.89;100.00
4858;BME280;58975;51.978;8.472;2023-02-04T17:50:36;102453.34;;;2.97;100.00
4858;BME280;58975;51.978;8.472;2023-02-04T17:55:36;102445.34;;;3.03;100.00
4858;BME280;58975;51.978;8.472;2023-02-04T18:00:34;102444.78;;;2.83;100.00
4858;BME280;58975;51.978;8.472;2023-02-04T18:05:33;102451.38;;;2.56;100.00
4858;BME280;58975;51.978;8.472;2023-02-04T18:10:31;102454.41;;;2.27;100.00
4858;BME280;58975;51.978;8.472;2023-02-04T18:15:30;102450.00;;;2.28;100.00
4858;BME280;58975;51.978;8.472;2023-02-04T18:20:28;102444.00;;;2.20;100.00
4858;BME280;58975;51.978;8.472;2023-02-04T18:25:25;102447.69;;;2.05;100.00
4858;BME280;58975;51.978;8.472;2023-02-04T18:30:22;102447.88;;;1.92;100.00
4858;BME280;58975;51.978;8.472;2023-02-04T18:50:33;102468.22;;;1.73;100.00
4858;BME280;58975;51.978;8.472;2023-02-04T18:55:35;102470.09;;;1.62;100.00
4858;BME280;58975;51.978;8.472;2023-02-04T19:00:32;102477.22;;;1.51;100.00
4858;BME280;58975;51.978;8.472;2023-02-04T19:05:36;102480.88;;;1.34;100.00
4858;BME280;58975;51.978;8.472;2023-02-04T19:10:38;102484.53;;;1.18;100.00
4858;BME280;58975;51.978;8.472;2023-02-04T19:15:37;102493.31;;;1.16;100.00
4858;BME280;58975;51.978;8.472;2023-02-04T19:20:34;102502.16;;;1.03;100.00
4858;BME280;58975;51.978;8.472;2023-02-04T19:25:36;102493.41;;;1.02;100.00
4858;BME280;58975;51.978;8.472;2023-02-04T19:30:43;102493.34;;;1.13;100.00
4858;BME280;58975;51.978;8.472;2023-02-04T19:35:41;102489.81;;;1.15;100.00
4858;BME280;58975;51.978;8.472;2023-02-04T19:40:41;102490.69;;;1.14;100.00
4858;BME280;58975;51.978;8.472;2023-02-04T19:45:39;102481.09;;;1.13;100.00
4858;BME280;58975;51.978;8.472;2023-02-04T19:50:35;102480.22;;;1.11;100.00
4858;BME280;58975;51.978;8.472;2023-02-04T19:55:34;102489.13;;;0.92;100.00
4858;BME280;58975;51.978;8.472;2023-02-04T20:05:31;102482.34;;;0.64;100.00
4858;BME280;58975;51.978;8.472;2023-02-04T20:10:27;102478.75;;;0.77;100.00
4858;BME280;58975;51.978;8.472;2023-02-04T20:15:24;102485.00;;;0.59;100.00
4858;BME280;58975;51.978;8.472;2023-02-04T20:20:26;102486.84;;;0.42;100.00
4858;BME280;58975;51.978;8.472;2023-02-04T20:30:34;102483.44;;;0.31;100.00
4858;BME280;58975;51.978;8.472;2023-02-04T20:40:36;102479.09;;;0.27;100.00
4858;BME280;58975;51.978;8.472;2023-02-04T20:45:35;102466.78;;;0.38;100.00
4858;BME280;58975;51.978;8.472;2023-02-04T20:50:49;102460.75;;;0.27;100.00
4858;BME280;58975;51.978;8.472;2023-02-04T20:56:02;102454.66;;;0.19;100.00
4858;BME280;58975;51.978;8.472;2023-02-04T21:00:59;102448.66;;;0.00;100.00
4858;BME280;58975;51.978;8.472;2023-02-04T21:05:58;102441.69;;;-0.04;100.00
4858;BME280;58975;51.978;8.472;2023-02-04T21:10:56;102440.78;;;-0.03;100.00
4858;BME280;58975;51.978;8.472;2023-02-04T21:15:52;102430.31;;;-0.02;100.00
4858;BME280;58975;51.978;8.472;2023-02-04T21:20:49;102442.47;;;0.10;100.00
4858;BME280;58975;51.978;8.472;2023-02-04T21:25:46;102446.03;;;-0.03;100.00
4858;BME280;58975;51.978;8.472;2023-02-04T21:30:42;102449.56;;;-0.13;100.00
4858;BME280;58975;51.978;8.472;2023-02-04T21:35:39;102461.78;;;-0.15;100.00
4858;BME280;58975;51.978;8.472;2023-02-04T21:40:36;102463.56;;;-0.26;100.00
4858;BME280;58975;51.978;8.472;2023-02-04T21:45:35;102463.56;;;-0.20;100.00
4858;BME280;58975;51.978;8.472;2023-02-04T21:50:32;102450.41;;;-0.11;100.00
4858;BME280;58975;51.978;8.472;2023-02-04T21:55:29;102454.84;;;-0.21;100.00
4858;BME280;58975;51.978;8.472;2023-02-04T22:00:26;102432.16;;;-0.31;100.00
4858;BME280;58975;51.978;8.472;2023-02-04T22:05:23;102430.50;;;-0.49;100.00
4858;BME280;58975;51.978;8.472;2023-02-04T22:10:22;102440.09;;;-0.63;100.00
4858;BME280;58975;51.978;8.472;2023-02-04T22:15:19;102450.63;;;-0.72;100.00
4858;BME280;58975;51.978;8.472;2023-02-04T22:20:21;102451.47;;;-0.73;100.00
4858;BME280;58975;51.978;8.472;2023-02-04T22:25:19;102444.50;;;-0.74;100.00
4858;BME280;58975;51.978;8.472;2023-02-04T22:30:17;102420.94;;;-0.74;100.00
4858;BME280;58975;51.978;8.472;2023-02-04T22:35:13;102414.88;;;-0.79;100.00
4858;BME280;58975;51.978;8.472;2023-02-04T22:40:11;102407.03;;;-0.80;100.00
4858;BME280;58975;51.978;8.472;2023-02-04T22:45:08;102414.88;;;-0.85;100.00
4858;BME280;58975;51.978;8.472;2023-02-04T22:50:06;102421.00;;;-0.87;100.00
4858;BME280;58975;51.978;8.472;2023-02-04T22:55:03;102410.50;;;-0.77;100.00
4858;BME280;58975;51.978;8.472;2023-02-04T22:59:59;102413.16;;;-0.83;100.00
4858;BME280;58975;51.978;8.472;2023-02-04T23:04:56;102431.44;;;-0.80;100.00
4858;BME280;58975;51.978;8.472;2023-02-04T23:09:52;102419.22;;;-0.67;100.00
4858;BME280;58975;51.978;8.472;2023-02-04T23:14:49;102432.28;;;-0.64;100.00
4858;BME280;58975;51.978;8.472;2023-02-04T23:19:46;102438.38;;;-0.70;100.00
4858;BME280;58975;51.978;8.472;2023-02-04T23:24:42;102436.63;;;-0.60;100.00
4858;BME280;58975;51.978;8.472;2023-02-04T23:29:39;102436.66;;;-0.65;100.00
4858;BME280;58975;51.978;8.472;2023-02-04T23:34:36;102436.66;;;-0.77;100.00
4858;BME280;58975;51.978;8.472;2023-02-04T23:39:32;102423.59;;;-0.83;100.00
4858;BME280;58975;51.978;8.472;2023-02-04T23:44:28;102409.66;;;-0.86;100.00
4858;BME280;58975;51.978;8.472;2023-02-04T23:49:25;102411.41;;;-0.84;100.00
4858;BME280;58975;51.978;8.472;2023-02-04T23:54:21;102415.75;;;-0.83;100.00
4858;BME280;58975;51.978;8.472;2023-02-04T23:59:18;102415.72;;;-0.78;100.00
